Latest Coastal Weather Observations for Cape Wessel

IDD60701

Issued at 1:01 am CST Friday 22 November 2019 (issued every 10 minutes, with the page automatically refreshed every 10 minutes)

About coastal observations | Map of coastal stations | Coastal observations for NT | Marine services | Other Formats
Station Details ID: 200786 Name: CAPE WESSEL Lat: -11.00 Lon: 136.76 Height: 18.0 m
Data from the previous 72 hours. | See also: Recent months at Cape Wessel
Date/Time
CST
Wind Sea
Height
m
Swell Vis
km
Cloud Weather Temp
°C
Press
hPa
Rain since
9am
mm
Dir  Spd
kts
Gust
kts
Height
m
Period
s
Dir
22/01:00am NNE 5 7 - - - - - - - 24.6 1009.6 0.0
22/12:30am NE 4 5 - - - - - - - 24.3 1009.8 0.0
22/12:00am ENE 4 5 - - - - - - - 24.4 1010.0 0.0
 
Date/Time
CST
Wind Sea
Height
m
Swell Vis
km
Cloud Weather Temp
°C
Press
hPa
Rain since
9am
mm
Dir  Spd
kts
Gust
kts
Height
m
Period
s
Dir
21/11:30pm E 3 5 - - - - - - - 24.4 1010.3 0.0
21/11:00pm E 3 4 - - - - - - - 24.3 1010.6 0.0
21/10:30pm E 3 5 - - - - - - - 24.3 1010.7 0.0
21/10:00pm E 1 3 - - - - - - - 24.5 1010.6 0.0
21/09:30pm CALM 0 0 - - - - - - - 24.8 1010.6 0.0
21/09:00pm CALM 0 0 - - - - - - - 24.7 1010.5 0.0
21/08:30pm E 3 4 - - - - - - - 25.2 1010.3 0.0
21/08:00pm E 3 5 - - - - - - - 25.6 1010.2 0.0
21/07:30pm E 4 5 - - - - - - - 26.3 1009.8 0.0
21/07:00pm E 5 6 - - - - - - - 26.9 1009.6 0.0
21/06:30pm E 5 6 - - - - - - - 28.1 1009.3 0.0
21/06:00pm ENE 5 6 - - - - - - - 28.9 1009.0 0.0
21/05:30pm NE 4 6 - - - - - - - 29.4 1008.9 0.0
21/05:00pm NE 6 8 - - - - - - - 30.8 1008.7 0.0
21/04:30pm N 5 7 - - - - - - - 30.8 1008.5 0.0
21/04:00pm N 5 7 - - - - - - - 31.1 1008.6 0.0
21/03:30pm N 7 8 - - - - - - - 32.0 1008.7 0.0
21/03:00pm N 6 8 - - - - - - - 31.3 1008.8 0.0
21/02:30pm N 7 9 - - - - - - - 31.7 1008.8 0.0
21/02:00pm N 7 9 - - - - - - - 32.0 1009.2 0.0
21/01:30pm N 6 9 - - - - - - - 32.7 1009.4 0.0
21/01:00pm N 9 11 - - - - - - - 32.6 1009.6 0.0
21/12:30pm N 11 14 - - - - - - - 33.0 1009.8 0.0
21/12:00pm N 11 13 - - - - - - - 33.2 1010.2 0.0
21/11:30am NNE 9 10 - - - - - - - 32.3 1011.0 0.0
21/11:00am NNE 8 10 - - - - - - - 32.2 1011.5 0.0
21/10:30am NNE 7 9 - - - - - - - 32.1 1011.8 0.0
21/10:00am NE 8 10 - - - - - - - 32.3 1012.1 0.0
21/09:30am ENE 7 9 - - - - - - - 32.1 1012.1 0.0
21/09:00am NE 8 9 - - - - - - - 31.0 1012.1 0.0
21/08:30am ENE 7 9 - - - - - - - 31.1 1012.0 0.0
21/08:00am NE 7 9 - - - - - - - 30.5 1011.9 0.0
21/07:30am NE 6 7 - - - - - - - 29.4 1011.6 0.0
21/07:00am NE 7 9 - - - - - - - 27.8 1011.2 0.0
21/06:30am NNE 7 8 - - - - - - - 26.6 1010.9 0.0
21/06:00am NNE 7 8 - - - - - - - 25.6 1010.6 0.0
21/05:30am NE 8 9 - - - - - - - 25.7 1010.3 0.0
21/05:00am NE 9 11 - - - - - - - 26.0 1010.1 0.0
21/04:30am NE 8 10 - - - - - - - 25.8 1009.8 0.0
21/04:00am NE 6 8 - - - - - - - 25.3 1009.4 0.0
21/03:30am NE 6 7 - - - - - - - 25.2 1009.2 0.0
21/03:00am NE 7 7 - - - - - - - 25.4 1009.2 0.0
21/02:30am NE 7 9 - - - - - - - 25.5 1009.2 0.0
21/02:00am NE 7 8 - - - - - - - 25.5 1009.3 0.0
21/01:30am NE 6 7 - - - - - - - 25.2 1009.3 0.0
21/01:00am NE 6 8 - - - - - - - 25.4 1009.5 0.0
21/12:30am NE 5 6 - - - - - - - 25.0 1009.7 0.0
21/12:00am NE 6 7 - - - - - - - 25.3 1009.8 0.0
 
Date/Time
CST
Wind Sea
Height
m
Swell Vis
km
Cloud Weather Temp
°C
Press
hPa
Rain since
9am
mm
Dir  Spd
kts
Gust
kts
Height
m
Period
s
Dir
20/11:30pm ENE 5 6 - - - - - - - 25.2 1010.3 0.0
20/11:00pm ENE 6 7 - - - - - - - 25.3 1010.5 0.0
20/10:30pm E 5 6 - - - - - - - 25.1 1010.4 0.0
20/10:00pm NE 4 4 - - - - - - - 24.8 1010.4 0.0
20/09:30pm NE 4 5 - - - - - - - 25.0 1010.4 0.0
20/09:00pm NE 3 5 - - - - - - - 25.2 1010.3 0.0
20/08:30pm NE 4 5 - - - - - - - 25.6 1009.8 0.0
20/08:00pm NNE 5 7 - - - - - - - 26.1 1009.4 0.0
20/07:30pm NE 6 7 - - - - - - - 26.4 1008.9 0.0
20/07:00pm NE 6 7 - - - - - - - 26.7 1008.8 0.0
20/06:30pm NE 5 6 - - - - - - - 27.4 1008.5 0.0
20/06:00pm NE 6 7 - - - - - - - 28.6 1008.4 0.0
20/05:30pm NE 7 8 - - - - - - - 29.5 1008.4 0.0
20/05:00pm NE 7 8 - - - - - - - 30.4 1008.4 0.0
20/04:30pm NNE 7 9 - - - - - - - 31.0 1008.5 0.0
20/04:00pm NNE 7 9 - - - - - - - 31.4 1008.5 0.0
20/03:30pm NNE 8 9 - - - - - - - 31.7 1008.4 0.0
20/03:00pm NNE 8 10 - - - - - - - 32.3 1008.5 0.0
20/02:30pm NE 8 10 - - - - - - - 31.3 1008.7 0.0
20/02:00pm NE 8 11 - - - - - - - 31.6 1009.1 0.0
20/01:30pm NE 9 12 - - - - - - - 33.7 1009.3 0.0
20/01:00pm NE 11 13 - - - - - - - 32.9 1009.5 0.0
20/12:30pm NE 12 15 - - - - - - - 33.4 1009.6 0.0
20/12:00pm NE 11 15 - - - - - - - 33.2 1009.9 0.0
20/11:30am NE 13 15 - - - - - - - 33.0 1009.9 0.0
20/11:00am NE 13 16 - - - - - - - 32.6 1010.1 0.0
20/10:30am NE 11 14 - - - - - - - 32.9 1010.3 0.0
20/10:00am NE 11 15 - - - - - - - 32.4 1010.5 0.0
20/09:30am NE 10 13 - - - - - - - 31.6 1010.4 0.0
20/09:00am NE 9 12 - - - - - - - 31.2 1010.6 0.0
20/08:30am NE 9 11 - - - - - - - 31.1 1010.5 0.0
20/08:00am NE 10 13 - - - - - - - 29.9 1010.1 0.0
20/07:30am NE 10 13 - - - - - - - 29.2 1010.1 0.0
20/07:00am NE 11 15 - - - - - - - 28.2 1009.8 0.0
20/06:30am NE 10 12 - - - - - - - 27.0 1009.5 0.0
20/06:00am ENE 9 12 - - - - - - - 26.4 1009.4 0.0
20/05:30am ENE 10 14 - - - - - - - 26.3 1009.1 0.0
20/05:00am ENE 9 13 - - - - - - - 26.3 1008.8 0.0
20/04:30am E 8 11 - - - - - - - 26.1 1008.6 0.0
20/04:00am E 8 11 - - - - - - - 26.0 1008.3 0.0
20/03:30am E 8 10 - - - - - - - 25.9 1008.3 0.0
20/03:00am E 7 9 - - - - - - - 25.8 1008.3 0.0
20/02:30am E 7 9 - - - - - - - 25.8 1008.3 0.0
20/02:00am E 7 9 - - - - - - - 26.0 1008.5 0.0
20/01:30am E 9 11 - - - - - - - 26.0 1008.7 0.0
20/01:00am E 8 9 - - - - - - - 25.8 1009.2 0.0
20/12:30am E 8 11 - - - - - - - 26.2 1009.6 0.0
20/12:00am E 10 13 - - - - - - - 26.5 1009.9 0.0
 
Date/Time
CST
Wind Sea
Height
m
Swell Vis
km
Cloud Weather Temp
°C
Press
hPa
Rain since
9am
mm
Dir  Spd
kts
Gust
kts
Height
m
Period
s
Dir
19/11:30pm E 9 12 - - - - - - - 26.5 1010.3 0.0
19/11:00pm E 10 12 - - - - - - - 26.7 1010.6 0.0
19/10:30pm E 11 14 - - - - - - - 26.8 1010.9 0.0
19/10:00pm E 11 14 - - - - - - - 26.9 1010.9 0.0
19/09:30pm E 11 13 - - - - - - - 26.8 1010.7 0.0
19/09:00pm E 10 13 - - - - - - - 26.8 1010.5 0.0
19/08:30pm E 10 12 - - - - - - - 26.9 1010.3 0.0
19/08:00pm E 10 12 - - - - - - - 26.9 1010.3 0.0
19/07:30pm E 10 13 - - - - - - - 27.1 1010.0 0.0
19/07:00pm E 11 14 - - - - - - - 27.2 1009.5 0.0
19/06:30pm E 10 12 - - - - - - - 27.6 1009.3 0.0
19/06:00pm E 10 12 - - - - - - - 28.1 1009.0 0.0
19/05:30pm E 9 12 - - - - - - - 29.2 1008.6 0.0
19/05:00pm ENE 8 11 - - - - - - - 30.5 1008.4 0.0
19/04:30pm ENE 8 10 - - - - - - - 31.0 1008.0 0.0
19/04:00pm ENE 9 10 - - - - - - - 31.2 1007.9 0.0
19/03:30pm ENE 8 10 - - - - - - - 32.5 1007.9 0.0
19/03:00pm ENE 9 11 - - - - - - - 32.0 1007.8 0.0
19/02:30pm ENE 8 10 - - - - - - - 33.1 1008.0 0.0
19/02:00pm ENE 11 14 - - - - - - - 33.1 1008.2 0.0
19/01:30pm ENE 11 13 - - - - - - - 33.5 1008.5 0.0
19/01:00pm NE 11 15 - - - - - - - 33.6 1008.9 0.0
19/12:30pm NE 11 13 - - - - - - - 33.0 1009.2 0.0
19/12:00pm ENE 11 13 - - - - - - - 33.0 1009.7 0.0
19/11:30am ENE 11 14 - - - - - - - 33.1 1010.2 0.0
19/11:00am ENE 12 16 - - - - - - - 33.7 1010.6 0.0
19/10:30am ENE 11 15 - - - - - - - 33.0 1010.9 0.0
19/10:00am ENE 10 12 - - - - - - - 32.3 1011.0 0.0
19/09:30am ENE 10 13 - - - - - - - 32.1 1011.0 0.0
19/09:00am E 9 12 - - - - - - - 31.7 1011.0 0.0
19/08:30am ENE 10 12 - - - - - - - 30.6 1010.8 0.0
19/08:00am ENE 10 12 - - - - - - - 29.9 1010.5 0.0
19/07:30am E 8 9 - - - - - - - 28.9 1010.1 0.0
19/07:00am ENE 8 10 - - - - - - - 27.5 1009.7 0.0
19/06:30am E 7 9 - - - - - - - 26.2 1009.4 0.0
19/06:00am ESE 7 8 - - - - - - - 25.5 1009.0 0.0
19/05:30am SE 7 8 - - - - - - - 25.3 1008.8 0.0
19/05:00am SE 6 8 - - - - - - - 25.3 1008.6 0.0
19/04:30am SE 7 8 - - - - - - - 25.2 1008.5 0.0
19/04:00am SE 5 6 - - - - - - - 24.9 1008.5 0.0
19/03:30am SE 5 6 - - - - - - - 25.4 1008.4 0.0
19/03:00am ESE 7 8 - - - - - - - 25.6 1008.6 0.0
19/02:30am E 6 8 - - - - - - - 25.6 1008.7 0.0
19/02:00am E 7 8 - - - - - - - 25.6 1009.1 0.0
19/01:30am ESE 5 7 - - - - - - - 25.2 1009.3 0.0

Other formats

Comma delimited format used in spreadsheet applications
http://www.bom.gov.au/fwo/IDD60701/IDD60701.94147.axf

JavaScript Object Notation format (JSON) in row-major order
http://www.bom.gov.au/fwo/IDD60701/IDD60701.94147.json

Data quality

Most of these data are generated automatically and are frequently updated. Quality checks on data are not normally performed. It is possible for incorrect values to appear. Refer to information at About Latest Weather Observations and please check the disclaimer before using these data.